createdAt,value
2023-11-26T00:00:28.533Z,7.43
2023-11-26T00:02:55.304Z,6.75
2023-11-26T00:05:22.019Z,7.68
2023-11-26T00:07:48.737Z,6.93
2023-11-26T00:10:15.449Z,7.28
2023-11-26T00:12:42.039Z,8.88
2023-11-26T00:15:10.034Z,7.97
2023-11-26T00:17:36.952Z,7.65
2023-11-26T00:20:03.864Z,7.85
2023-11-26T00:22:30.475Z,7.93
2023-11-26T00:24:57.095Z,7.30
2023-11-26T00:27:24.305Z,7.45
2023-11-26T00:29:50.822Z,7.30
2023-11-26T00:32:18.036Z,7.47
2023-11-26T00:34:44.964Z,6.88
2023-11-26T00:37:11.757Z,7.05
2023-11-26T00:39:38.374Z,7.65
2023-11-26T00:42:05.108Z,6.63
2023-11-26T00:44:31.725Z,6.47
2023-11-26T00:46:58.446Z,6.30
2023-11-26T00:49:25.015Z,6.47
2023-11-26T00:51:51.681Z,6.85
2023-11-26T00:54:18.325Z,6.28
2023-11-26T00:56:44.950Z,7.28
2023-11-26T00:59:11.727Z,5.60
2023-11-26T01:01:38.445Z,5.70
2023-11-26T01:04:05.297Z,6.30
2023-11-26T01:06:32.434Z,6.15
2023-11-26T01:08:58.926Z,6.57
2023-11-26T01:11:26.776Z,6.18
2023-11-26T01:13:53.584Z,6.38
2023-11-26T01:16:20.621Z,5.13
2023-11-26T01:18:47.947Z,5.68
2023-11-26T01:21:14.991Z,5.70
2023-11-26T01:23:41.697Z,5.75
2023-11-26T01:26:08.518Z,5.88
2023-11-26T01:28:35.125Z,5.20
2023-11-26T01:31:01.716Z,4.90
2023-11-26T01:33:28.846Z,5.32
2023-11-26T01:35:55.498Z,5.00
2023-11-26T01:38:22.879Z,4.53
2023-11-26T01:40:49.641Z,4.63
2023-11-26T01:43:16.261Z,4.53
2023-11-26T01:45:42.806Z,4.57
2023-11-26T01:48:09.326Z,5.32
2023-11-26T01:50:35.878Z,4.63
2023-11-26T01:53:02.566Z,4.28
2023-11-26T01:55:29.151Z,4.60
2023-11-26T01:57:55.758Z,4.80
2023-11-26T02:00:23.042Z,4.20
2023-11-26T02:02:50.276Z,4.18
2023-11-26T02:05:17.303Z,4.32
2023-11-26T02:07:44.214Z,4.10
2023-11-26T02:10:10.801Z,4.72
2023-11-26T02:12:37.365Z,4.80
2023-11-26T02:15:04.393Z,5.15
2023-11-26T02:17:31.817Z,4.53
2023-11-26T02:20:01.881Z,4.80
2023-11-26T02:22:29.520Z,5.07
2023-11-26T02:24:56.322Z,4.65
2023-11-26T02:27:22.911Z,4.90
2023-11-26T02:29:49.515Z,5.45
2023-11-26T02:32:16.115Z,4.00
2023-11-26T02:34:42.744Z,4.32
2023-11-26T02:37:09.314Z,5.45
2023-11-26T02:39:35.923Z,4.55
2023-11-26T02:42:02.690Z,4.60
2023-11-26T02:44:29.202Z,4.07
2023-11-26T02:46:55.929Z,4.18
2023-11-26T02:49:22.535Z,4.53
2023-11-26T02:51:49.161Z,4.93
2023-11-26T02:54:15.740Z,4.43
2023-11-26T02:56:42.887Z,4.28
2023-11-26T02:59:10.196Z,5.07
2023-11-26T03:01:36.767Z,4.63
2023-11-26T03:04:03.605Z,4.20
2023-11-26T03:06:32.607Z,4.85
2023-11-26T03:09:02.173Z,4.30
2023-11-26T03:11:47.437Z,4.60
2023-11-26T03:14:15.028Z,3.95
2023-11-26T03:16:46.030Z,4.25
2023-11-26T03:19:16.275Z,4.27
2023-11-26T03:21:44.512Z,4.47
2023-11-26T03:24:11.286Z,4.35
2023-11-26T03:26:37.946Z,5.13
2023-11-26T03:29:05.826Z,4.82
2023-11-26T03:31:32.410Z,4.43
2023-11-26T03:33:59.274Z,4.43
2023-11-26T03:36:26.204Z,4.57
2023-11-26T03:38:53.684Z,4.03
2023-11-26T03:41:20.219Z,4.70
2023-11-26T03:43:46.733Z,4.18
2023-11-26T03:46:13.212Z,4.53
2023-11-26T03:48:40.243Z,4.28
2023-11-26T03:51:06.875Z,4.88
2023-11-26T03:53:33.466Z,4.80
2023-11-26T03:56:00.192Z,4.65
2023-11-26T03:58:26.867Z,5.05
2023-11-26T04:00:53.586Z,4.93
2023-11-26T04:03:20.101Z,5.00
2023-11-26T04:05:46.622Z,4.80
2023-11-26T04:08:13.264Z,4.75
2023-11-26T04:10:41.472Z,4.82
2023-11-26T04:13:08.499Z,4.47
2023-11-26T04:15:37.439Z,4.90
2023-11-26T04:18:04.027Z,4.40
2023-11-26T04:20:30.845Z,4.68
2023-11-26T04:22:57.512Z,5.72
2023-11-26T04:25:24.756Z,5.43
2023-11-26T04:27:52.005Z,4.55
2023-11-26T04:30:18.659Z,4.55
2023-11-26T04:32:45.345Z,4.47
2023-11-26T04:35:12.513Z,4.78
2023-11-26T04:37:39.191Z,4.50
2023-11-26T04:40:10.529Z,4.68
2023-11-26T04:42:37.105Z,4.97
2023-11-26T04:45:04.092Z,5.68
2023-11-26T04:47:30.752Z,5.18
2023-11-26T04:49:59.736Z,4.63
2023-11-26T04:52:26.697Z,4.53
2023-11-26T04:54:53.286Z,6.18
2023-11-26T04:57:19.770Z,4.82
2023-11-26T04:59:46.253Z,4.47
2023-11-26T05:02:15.640Z,4.20
2023-11-26T05:04:42.540Z,4.55
2023-11-26T05:07:09.722Z,4.68
2023-11-26T05:09:36.249Z,4.88
2023-11-26T05:12:06.642Z,4.82
2023-11-26T05:14:33.203Z,4.30
2023-11-26T05:17:00.101Z,4.97
2023-11-26T05:19:26.763Z,4.57
2023-11-26T05:21:53.912Z,5.53
2023-11-26T05:24:20.435Z,5.00
2023-11-26T05:26:48.540Z,4.63
2023-11-26T05:29:15.139Z,5.95
2023-11-26T05:31:41.658Z,5.15
2023-11-26T05:34:08.143Z,5.40
2023-11-26T05:36:34.739Z,4.32
2023-11-26T05:39:01.344Z,5.65
2023-11-26T05:41:27.925Z,5.07
2023-11-26T05:43:54.688Z,5.47
2023-11-26T05:46:21.336Z,5.78
2023-11-26T05:48:48.105Z,5.07
2023-11-26T05:51:20.586Z,5.85
2023-11-26T05:53:47.415Z,5.78
2023-11-26T05:56:13.923Z,6.13
2023-11-26T05:58:40.431Z,5.88
2023-11-26T06:01:07.642Z,5.25
2023-11-26T06:03:34.239Z,5.45
2023-11-26T06:06:00.770Z,5.50
2023-11-26T06:08:27.248Z,5.95
2023-11-26T06:10:53.725Z,5.35
2023-11-26T06:13:20.224Z,6.35
2023-11-26T06:15:48.121Z,6.18
2023-11-26T06:18:16.207Z,6.00
2023-11-26T06:20:43.823Z,5.22
2023-11-26T06:23:11.542Z,5.32
2023-11-26T06:25:39.487Z,5.50
2023-11-26T06:28:07.559Z,5.05
2023-11-26T06:30:34.246Z,5.75
2023-11-26T06:33:02.976Z,6.20
2023-11-26T06:35:34.461Z,7.18
2023-11-26T06:38:07.101Z,6.30
2023-11-26T06:40:33.710Z,5.65
2023-11-26T06:43:01.427Z,7.28
2023-11-26T06:45:29.544Z,5.95
2023-11-26T06:47:57.251Z,6.22
2023-11-26T06:50:24.994Z,6.47
2023-11-26T06:52:53.026Z,7.72
2023-11-26T06:55:23.157Z,7.25
2023-11-26T06:57:50.565Z,6.30
2023-11-26T07:00:17.397Z,6.28
2023-11-26T07:02:45.612Z,7.00
2023-11-26T07:05:14.078Z,6.72
2023-11-26T07:07:42.029Z,7.78
2023-11-26T07:10:08.946Z,6.90
2023-11-26T07:12:36.780Z,6.22
2023-11-26T07:15:06.242Z,6.55
2023-11-26T07:17:33.386Z,6.43
2023-11-26T07:19:59.969Z,5.93
2023-11-26T07:22:26.793Z,6.53
2023-11-26T07:24:54.700Z,6.55
2023-11-26T07:27:22.734Z,6.40
2023-11-26T07:29:49.354Z,6.97
2023-11-26T07:32:15.959Z,6.82
2023-11-26T07:34:44.000Z,7.20
2023-11-26T07:37:12.491Z,6.53
2023-11-26T07:39:41.392Z,6.45
2023-11-26T07:42:09.198Z,7.28
2023-11-26T07:44:37.667Z,6.55
2023-11-26T07:47:06.790Z,5.15
2023-11-26T07:49:37.407Z,6.60
2023-11-26T07:52:05.491Z,5.88
2023-11-26T07:54:33.845Z,4.88
2023-11-26T07:57:01.918Z,5.53
2023-11-26T07:59:28.390Z,5.43
2023-11-26T08:01:56.449Z,5.32
2023-11-26T08:04:27.740Z,5.60
2023-11-26T08:06:55.178Z,4.50
2023-11-26T08:09:23.050Z,5.43
2023-11-26T08:11:53.730Z,4.57
2023-11-26T08:14:21.674Z,5.60
2023-11-26T08:16:48.180Z,5.45
2023-11-26T08:19:17.687Z,5.93
2023-11-26T08:21:46.139Z,5.03
2023-11-26T08:24:19.458Z,5.80
2023-11-26T08:26:48.608Z,6.18
2023-11-26T08:29:19.709Z,5.95
2023-11-26T08:31:50.645Z,5.23
2023-11-26T08:34:18.872Z,5.40
2023-11-26T08:36:45.777Z,5.85
2023-11-26T08:39:27.955Z,5.38
2023-11-26T08:41:56.221Z,4.80
2023-11-26T08:44:22.691Z,4.88
2023-11-26T08:46:49.355Z,5.10
2023-11-26T08:49:23.505Z,5.05
2023-11-26T08:51:51.449Z,5.35
2023-11-26T08:54:19.574Z,5.35
2023-11-26T08:56:46.426Z,5.50
2023-11-26T08:59:13.034Z,6.70
2023-11-26T09:01:39.912Z,8.00
2023-11-26T09:04:08.356Z,10.73
2023-11-26T09:06:35.033Z,14.18
2023-11-26T09:09:02.001Z,6.18
2023-11-26T09:11:29.741Z,6.55
2023-11-26T09:13:59.326Z,6.57
2023-11-26T09:16:26.952Z,6.40
2023-11-26T09:18:53.561Z,6.28
2023-11-26T09:21:24.178Z,6.85
2023-11-26T09:23:53.306Z,7.90
2023-11-26T09:26:19.913Z,7.65
2023-11-26T09:28:53.753Z,7.13
2023-11-26T09:31:24.396Z,8.35
2023-11-26T09:33:52.387Z,6.38
2023-11-26T09:36:20.468Z,7.70
2023-11-26T09:38:47.258Z,7.60
2023-11-26T09:41:21.571Z,10.27
2023-11-26T09:43:48.385Z,8.55
2023-11-26T09:46:16.463Z,8.48
2023-11-26T09:48:44.046Z,8.43
2023-11-26T09:51:10.909Z,7.53
2023-11-26T09:53:39.236Z,8.85
2023-11-26T09:56:06.041Z,7.35
2023-11-26T09:58:42.515Z,9.75
2023-11-26T10:01:09.448Z,6.75
2023-11-26T10:03:55.696Z,7.75
2023-11-26T10:06:23.987Z,6.60
2023-11-26T10:08:52.068Z,6.40
2023-11-26T10:11:25.985Z,6.45
2023-11-26T10:13:54.150Z,7.45
2023-11-26T10:16:30.000Z,6.90
2023-11-26T10:18:56.636Z,7.00
2023-11-26T10:21:26.425Z,8.65
2023-11-26T10:23:54.029Z,7.78
2023-11-26T10:26:20.840Z,6.57
2023-11-26T10:29:09.948Z,5.88
2023-11-26T10:31:38.280Z,7.75
2023-11-26T10:34:15.025Z,9.40
2023-11-26T10:36:43.520Z,7.55
2023-11-26T10:39:13.684Z,9.07
2023-11-26T10:41:42.156Z,8.35
2023-11-26T10:44:10.203Z,8.23
2023-11-26T10:46:38.146Z,8.13
2023-11-26T10:49:24.970Z,7.82
2023-11-26T10:52:09.489Z,7.78
2023-11-26T10:54:54.580Z,9.45
2023-11-26T10:57:42.908Z,7.05
2023-11-26T11:00:19.759Z,8.27
2023-11-26T11:02:46.987Z,7.25
2023-11-26T11:05:13.874Z,7.10
2023-11-26T11:07:41.366Z,6.45
2023-11-26T11:10:11.395Z,6.22
2023-11-26T11:12:58.851Z,6.50
2023-11-26T11:15:26.159Z,5.53
2023-11-26T11:17:53.175Z,5.82
2023-11-26T11:20:19.899Z,5.65
2023-11-26T11:22:47.927Z,5.65
2023-11-26T11:25:21.034Z,5.50
2023-11-26T11:27:50.692Z,5.90
2023-11-26T11:30:32.662Z,5.75
2023-11-26T11:35:47.118Z,7.00
2023-11-26T11:38:14.180Z,7.78
2023-11-26T11:40:58.944Z,7.10
2023-11-26T11:43:25.633Z,7.43
2023-11-26T11:45:52.143Z,8.57
2023-11-26T11:48:37.378Z,8.55
2023-11-26T11:51:03.996Z,8.75
2023-11-26T11:53:35.261Z,9.27
2023-11-26T11:56:07.617Z,8.93
2023-11-26T11:58:35.074Z,9.30
2023-11-26T12:01:01.808Z,10.05
2023-11-26T12:03:28.652Z,9.43
2023-11-26T12:06:08.859Z,9.18
2023-11-26T12:08:35.438Z,9.88
2023-11-26T12:11:08.423Z,10.98
2023-11-26T12:13:40.962Z,13.55
2023-11-26T12:16:07.847Z,13.75
2023-11-26T12:18:34.522Z,13.55
2023-11-26T12:21:01.126Z,12.02
2023-11-26T12:23:36.915Z,12.00
2023-11-26T12:26:04.810Z,11.43
2023-11-26T12:28:41.266Z,10.80
2023-11-26T12:31:07.931Z,13.73
2023-11-26T12:33:34.962Z,11.13
2023-11-26T12:36:02.305Z,10.85
2023-11-26T12:38:28.995Z,9.85
2023-11-26T12:40:57.311Z,11.15
2023-11-26T12:43:25.998Z,12.93
2023-11-26T12:45:52.705Z,10.43
2023-11-26T12:48:19.310Z,10.18
2023-11-26T12:50:46.228Z,9.73
2023-11-26T12:53:13.239Z,10.15
2023-11-26T12:55:46.632Z,11.05
2023-11-26T12:58:25.598Z,10.98
2023-11-26T13:00:53.029Z,13.32
2023-11-26T13:03:21.421Z,15.00
2023-11-26T13:05:48.762Z,11.20
2023-11-26T13:08:22.373Z,12.48
2023-11-26T13:10:55.879Z,13.05
2023-11-26T13:13:33.194Z,12.52
2023-11-26T13:16:00.727Z,11.20
2023-11-26T13:18:28.108Z,10.70
2023-11-26T13:20:58.292Z,12.68
2023-11-26T13:23:25.953Z,12.90
2023-11-26T13:25:53.457Z,12.80
2023-11-26T13:28:20.977Z,14.25
2023-11-26T13:30:48.275Z,13.57
2023-11-26T13:33:15.533Z,12.93
2023-11-26T13:35:42.572Z,11.45
2023-11-26T13:38:09.735Z,14.13
2023-11-26T13:40:38.896Z,13.10
2023-11-26T13:43:06.176Z,13.80
2023-11-26T13:45:33.351Z,13.18
2023-11-26T13:48:05.563Z,13.88
2023-11-26T13:50:37.979Z,13.13
2023-11-26T13:53:06.345Z,12.70
2023-11-26T13:55:32.904Z,12.20
2023-11-26T13:58:02.735Z,11.18
2023-11-26T14:00:29.890Z,10.07
2023-11-26T14:02:57.257Z,8.13
2023-11-26T14:05:24.371Z,7.05
2023-11-26T14:07:52.999Z,6.13
2023-11-26T14:10:21.447Z,7.35
2023-11-26T14:12:49.027Z,6.80
2023-11-26T14:15:16.206Z,5.30
2023-11-26T14:17:44.313Z,5.35
2023-11-26T14:20:13.421Z,6.78
2023-11-26T14:22:43.276Z,6.07
2023-11-26T14:25:12.793Z,6.00
2023-11-26T14:27:39.530Z,5.63
2023-11-26T14:30:06.526Z,5.43
2023-11-26T14:32:33.216Z,4.03
2023-11-26T14:34:59.822Z,4.10
2023-11-26T14:37:26.325Z,3.13
2023-11-26T14:39:53.030Z,2.45
2023-11-26T14:42:20.184Z,2.03
2023-11-26T14:44:46.920Z,1.60
2023-11-26T14:47:13.722Z,2.05
2023-11-26T14:49:40.231Z,1.67
2023-11-26T14:52:10.011Z,1.48
2023-11-26T14:54:37.161Z,1.00
2023-11-26T14:57:04.036Z,2.60
2023-11-26T14:59:33.190Z,2.13
2023-11-26T15:02:00.217Z,2.97
2023-11-26T15:04:26.840Z,1.92
2023-11-26T15:06:54.818Z,2.55
2023-11-26T15:09:21.590Z,2.20
2023-11-26T15:11:48.161Z,2.45
2023-11-26T15:14:16.085Z,2.60
2023-11-26T15:16:42.850Z,2.45
2023-11-26T15:19:09.504Z,3.20
2023-11-26T15:21:36.431Z,3.65
2023-11-26T15:24:04.176Z,3.65
2023-11-26T15:26:31.793Z,4.22
2023-11-26T15:28:58.345Z,3.42
2023-11-26T15:31:25.328Z,3.38
2023-11-26T15:33:52.195Z,3.35
2023-11-26T15:36:22.283Z,3.35
2023-11-26T15:38:49.206Z,3.63
2023-11-26T15:41:22.870Z,3.95
2023-11-26T15:43:50.260Z,4.05
2023-11-26T15:46:19.840Z,3.85
2023-11-26T15:48:46.755Z,4.07
2023-11-26T15:51:13.606Z,3.53
2023-11-26T15:53:40.161Z,3.30
2023-11-26T15:56:07.220Z,3.60
2023-11-26T15:58:33.783Z,3.70
2023-11-26T16:01:00.338Z,3.15
2023-11-26T16:03:27.035Z,3.95
2023-11-26T16:05:54.509Z,4.72
2023-11-26T16:08:21.589Z,3.55
2023-11-26T16:10:48.481Z,4.28
2023-11-26T16:13:15.844Z,3.90
2023-11-26T16:15:42.618Z,3.47
2023-11-26T16:18:09.221Z,4.32
2023-11-26T16:20:35.746Z,3.20
2023-11-26T16:23:02.328Z,4.53
2023-11-26T16:25:28.854Z,3.95
2023-11-26T16:27:57.806Z,4.22
2023-11-26T16:30:24.802Z,2.85
2023-11-26T16:32:51.761Z,3.28
2023-11-26T16:35:18.464Z,3.08
2023-11-26T16:37:45.493Z,3.10
2023-11-26T16:40:12.566Z,3.20
2023-11-26T16:42:39.337Z,2.90
2023-11-26T16:45:06.082Z,3.30
2023-11-26T16:47:36.236Z,3.17
2023-11-26T16:52:31.201Z,4.00
2023-11-26T16:54:58.020Z,3.42
2023-11-26T16:57:25.366Z,3.78
2023-11-26T16:59:52.198Z,3.38
2023-11-26T17:02:20.950Z,4.30
2023-11-26T17:04:48.505Z,3.28
2023-11-26T17:07:18.051Z,3.38
2023-11-26T17:09:44.693Z,4.03
2023-11-26T17:12:12.267Z,3.47
2023-11-26T17:14:39.923Z,3.28
2023-11-26T17:17:07.873Z,3.75
2023-11-26T17:19:34.439Z,3.60
2023-11-26T17:22:01.091Z,4.00
2023-11-26T17:24:27.723Z,4.32
2023-11-26T17:26:54.552Z,4.05
2023-11-26T17:29:21.056Z,5.22
2023-11-26T17:31:47.580Z,4.80
2023-11-26T17:34:14.333Z,3.30
2023-11-26T17:36:45.183Z,3.80
2023-11-26T17:39:11.836Z,2.40
2023-11-26T17:41:38.369Z,4.30
2023-11-26T17:44:05.066Z,3.10
2023-11-26T17:46:31.756Z,2.90
2023-11-26T17:48:58.364Z,2.45
2023-11-26T17:51:24.920Z,2.60
2023-11-26T17:53:51.413Z,4.72
2023-11-26T17:56:18.041Z,3.78
2023-11-26T17:58:45.519Z,3.65
2023-11-26T18:01:13.957Z,4.07
2023-11-26T18:03:40.788Z,3.78
2023-11-26T18:06:10.728Z,3.80
2023-11-26T18:08:37.569Z,4.32
2023-11-26T18:11:05.047Z,4.80
2023-11-26T18:13:33.072Z,3.80
2023-11-26T18:15:59.980Z,4.18
2023-11-26T18:18:26.549Z,4.18
2023-11-26T18:20:53.234Z,3.97
2023-11-26T18:23:20.003Z,3.65
2023-11-26T18:25:46.543Z,3.80
2023-11-26T18:28:13.233Z,4.28
2023-11-26T18:30:40.280Z,4.88
2023-11-26T18:33:06.940Z,4.75
2023-11-26T18:35:34.088Z,4.07
2023-11-26T18:38:01.966Z,3.47
2023-11-26T18:40:28.560Z,3.30
2023-11-26T18:42:55.131Z,2.90
2023-11-26T18:45:22.124Z,3.47
2023-11-26T18:47:48.794Z,3.08
2023-11-26T18:50:15.822Z,3.95
2023-11-26T18:52:42.433Z,3.15
2023-11-26T18:55:09.190Z,3.67
2023-11-26T18:57:35.904Z,3.55
2023-11-26T19:00:03.336Z,4.25
2023-11-26T19:02:30.218Z,3.95
2023-11-26T19:04:56.782Z,3.45
2023-11-26T19:07:23.972Z,4.10
2023-11-26T19:09:50.625Z,3.80
2023-11-26T19:12:17.725Z,3.22
2023-11-26T19:14:44.549Z,2.70
2023-11-26T19:17:11.079Z,3.95
2023-11-26T19:19:38.142Z,4.32
2023-11-26T19:22:05.310Z,4.68
2023-11-26T19:24:32.210Z,3.17
2023-11-26T19:26:58.869Z,3.40
2023-11-26T19:29:25.955Z,3.78
2023-11-26T19:31:52.703Z,3.55
2023-11-26T19:34:19.383Z,3.28
2023-11-26T19:36:46.097Z,3.17
2023-11-26T19:39:14.305Z,3.15
2023-11-26T19:41:41.097Z,2.90
2023-11-26T19:44:07.675Z,3.00
2023-11-26T19:46:34.352Z,2.10
2023-11-26T19:49:00.972Z,2.58
2023-11-26T19:51:31.212Z,2.40
2023-11-26T19:53:57.781Z,2.58
2023-11-26T19:56:24.455Z,3.03
2023-11-26T19:58:51.144Z,2.83
2023-11-26T20:01:18.343Z,3.63
2023-11-26T20:03:46.887Z,2.92
2023-11-26T20:06:14.015Z,2.78
2023-11-26T20:08:41.068Z,2.50
2023-11-26T20:11:09.518Z,2.58
2023-11-26T20:13:36.484Z,2.70
2023-11-26T20:16:03.142Z,3.00
2023-11-26T20:18:31.916Z,2.80
2023-11-26T20:21:00.240Z,2.90
2023-11-26T20:23:27.224Z,2.95
2023-11-26T20:25:54.266Z,2.22
2023-11-26T20:28:24.291Z,2.05
2023-11-26T20:30:52.466Z,2.65
2023-11-26T20:33:19.386Z,2.58
2023-11-26T20:35:46.260Z,2.78
2023-11-26T20:38:12.794Z,2.80
2023-11-26T20:40:40.073Z,3.53
2023-11-26T20:43:06.698Z,2.67
2023-11-26T20:45:33.453Z,2.28
2023-11-26T20:48:00.250Z,1.60
2023-11-26T20:50:27.099Z,2.25
2023-11-26T20:52:54.252Z,1.88
2023-11-26T20:55:20.919Z,2.40
2023-11-26T20:57:47.563Z,2.35
2023-11-26T21:00:14.542Z,1.95
2023-11-26T21:02:44.554Z,2.65
2023-11-26T21:05:11.679Z,2.33
2023-11-26T21:07:38.617Z,2.67
2023-11-26T21:10:07.451Z,2.72
2023-11-26T21:12:34.566Z,1.73
2023-11-26T21:15:01.393Z,2.05
2023-11-26T21:17:28.141Z,2.35
2023-11-26T21:19:54.749Z,2.53
2023-11-26T21:22:24.226Z,2.38
2023-11-26T21:24:52.194Z,2.75
2023-11-26T21:27:19.392Z,2.38
2023-11-26T21:29:46.019Z,2.42
2023-11-26T21:32:15.006Z,2.58
2023-11-26T21:34:45.153Z,2.17
2023-11-26T21:37:12.695Z,2.78
2023-11-26T21:39:39.491Z,1.73
2023-11-26T21:42:06.158Z,2.63
2023-11-26T21:44:32.657Z,2.58
2023-11-26T21:46:59.266Z,1.70
2023-11-26T21:49:25.978Z,2.08
2023-11-26T21:51:52.548Z,2.00
2023-11-26T21:54:19.981Z,1.65
2023-11-26T21:56:46.641Z,1.80
2023-11-26T21:59:14.225Z,1.98
2023-11-26T22:01:43.179Z,2.10
2023-11-26T22:04:10.184Z,1.90
2023-11-26T22:06:36.805Z,2.03
2023-11-26T22:09:03.443Z,2.25
2023-11-26T22:11:29.972Z,2.33
2023-11-26T22:13:56.471Z,2.33
2023-11-26T22:16:23.233Z,2.35
2023-11-26T22:18:50.077Z,2.92
2023-11-26T22:21:17.180Z,2.58
2023-11-26T22:23:43.863Z,2.28
2023-11-26T22:26:10.670Z,1.92
2023-11-26T22:28:37.731Z,2.35
2023-11-26T22:31:04.364Z,1.98
2023-11-26T22:33:30.996Z,2.03
2023-11-26T22:35:57.617Z,2.10
2023-11-26T22:38:24.116Z,2.83
2023-11-26T22:40:50.709Z,3.03
2023-11-26T22:43:17.445Z,2.80
2023-11-26T22:45:44.043Z,2.80
2023-11-26T22:48:10.689Z,2.40
2023-11-26T22:50:47.685Z,3.10
2023-11-26T22:53:19.035Z,3.08
2023-11-26T22:55:45.665Z,3.53
2023-11-26T22:58:12.409Z,3.05
2023-11-26T23:00:39.765Z,3.63
2023-11-26T23:03:06.433Z,3.63
2023-11-26T23:05:33.153Z,3.88
2023-11-26T23:08:00.693Z,3.45
2023-11-26T23:10:27.344Z,3.92
2023-11-26T23:12:54.045Z,3.70
2023-11-26T23:15:20.737Z,4.30
2023-11-26T23:17:47.503Z,3.88
2023-11-26T23:20:14.264Z,3.60
2023-11-26T23:22:40.801Z,3.90
2023-11-26T23:25:10.719Z,4.43
2023-11-26T23:27:38.214Z,4.22
2023-11-26T23:30:05.531Z,3.28
2023-11-26T23:32:32.168Z,3.90
2023-11-26T23:34:58.931Z,3.90
2023-11-26T23:37:25.600Z,3.60
2023-11-26T23:39:54.780Z,3.80
2023-11-26T23:42:21.449Z,3.53
2023-11-26T23:44:48.075Z,3.75
2023-11-26T23:47:14.701Z,3.92
2023-11-26T23:49:41.213Z,3.55
2023-11-26T23:52:07.864Z,3.97
2023-11-26T23:54:34.450Z,3.10
2023-11-26T23:57:01.052Z,3.35
2023-11-26T23:59:27.587Z,4.30
